Форум клана ЧПУшников

Информация о пользователе

Привет, Гость! Войдите или зарегистрируйтесь.


Вы здесь » Форум клана ЧПУшников » Лазерные станки


Лазерные станки

Тем 321 страница 400 из 452

Тема Ответов Просмотров Последнее сообщение
13 1844 15-04-2016 11:34:20  ImageLaser
11 278 11-04-2016 14:35:21  MaxMaster
13 375 09-04-2016 20:30:46  aldushin
5 272 06-04-2016 17:28:09  daguss
992 93542 29-03-2016 17:50:18  sva-don
14 373 26-03-2016 10:17:16  Егорий
327 Закрыта Резко упала мощность  Neudrums
10 322 24-03-2016 00:59:57  Neudrums
5 418 22-03-2016 20:12:39  Дилик
19 1785 16-03-2016 23:19:45  Falcor
330 Прошу помощи.  Назар
5 306 16-03-2016 09:51:09  Назар
8 236 14-03-2016 16:51:53  Расулыч
21 6938 13-03-2016 19:24:18  barabaschka09
7 393 10-03-2016 20:36:59  chirik
5 723 07-03-2016 20:32:32  Flint2015
19 1705 04-03-2016 17:27:39  Airside
4 191 29-02-2016 22:43:44  nikson
5 171 27-02-2016 08:50:26  Flint2015
338 Тестирование размера реза  Виктор Краски
9 472 26-02-2016 16:55:55  daguss
339 кривая резка  Восходник
17 486 26-02-2016 00:06:30  semerochka
80 5723 22-02-2016 20:51:36  Kinetic
17 901 22-02-2016 12:02:26  Kinetic
30 1004 19-02-2016 21:54:44  Rudiarius
5 566 14-02-2016 15:24:59  gabber
7 383 14-02-2016 12:43:54  Zippo
12 378 12-02-2016 17:15:38  Yaroslavl
2 203 12-02-2016 10:23:44  Администратор
22 873 07-02-2016 15:27:40  Imobile
6 319 28-01-2016 17:09:21  StarPOM
25 936 26-01-2016 15:23:58  Zippo
16 663 15-01-2016 04:57:58  Tauhuh
351 Аквапомпа  markaru
7 305 12-01-2016 18:35:57  dm6
3 234 07-01-2016 00:45:42  okruk
4 237 05-01-2016 10:25:43  markaru
6 481 04-01-2016 21:25:36  SDB
355 Нужна помощь специалистов!  Мастер на все руки
30 1243 02-01-2016 20:05:38  racon75
7 204 24-12-2015 12:08:34  lexus80
22 2268 21-12-2015 14:22:31  Kuz
14 361 14-12-2015 15:59:50  YuSTas
8 331 12-12-2015 20:20:10  Shamankiller
15 568 12-12-2015 18:02:39  racon75
38 904 08-12-2015 23:46:50  asor
35 892 08-12-2015 18:35:57  dm6
8 357 07-12-2015 21:25:28  Dimon
25 905 04-12-2015 21:36:10  Silmaril
365 Лазерный станок Kamach II 1280 AS  радион рашитович
4 232 04-12-2015 20:36:20  Airside
4 299 04-12-2015 10:56:16  Drakonstar
9 621 29-11-2015 02:45:00  Лазорез
38 795 27-11-2015 18:12:36  ЫХ-000
41 1354 27-11-2015 12:34:06  Slym
44 1834 22-11-2015 11:50:31  _king_
371 mpc6525 - завис  Dr_dober
2 243 16-11-2015 12:54:39  Dr_dober
5 205 10-11-2015 22:25:27  Прокоп
30 2180 09-11-2015 16:17:15  bort747
1 209 07-11-2015 14:48:03  MobileMan
375 Гравивовка на iPhone  Максим1975
9 595 28-10-2015 12:02:57  Восходник
44 1064 25-10-2015 16:54:39  tok17
3 241 25-10-2015 11:20:20  Фёдор Соколов
12 637 24-10-2015 11:53:29  yri71
21 1772 21-10-2015 23:59:06  dmitrymi
10 706 20-10-2015 16:04:37  YuSTas
2 94 20-10-2015 15:35:36  Kuz
6 235 15-10-2015 09:36:29  Валерия-206
3 193 13-10-2015 11:20:10  Kuz
1 150 06-10-2015 16:34:03  coolmail
29 1006 30-09-2015 12:07:02  olejah
9 397 28-09-2015 04:25:16  BlackOx
387 Расфокусировка  Прокоп
8 309 24-09-2015 20:30:02  Прокоп
14 376 24-09-2015 20:07:38  Lord
6 232 23-09-2015 08:43:57  Airside
3 125 22-09-2015 17:06:12  PalSecam
3 147 22-09-2015 14:56:27  PalSecam
2 171 16-09-2015 22:31:09  Артем-70
35 498 04-09-2015 12:04:29  ecto
5 251 02-09-2015 16:35:06  Halkin
2 383 01-09-2015 22:56:15  Soundlab 77
396 Станок для резки  владимир1070
7 308 27-08-2015 01:47:38  tok17
3 435 05-08-2015 09:46:16  Zeech79
25 775 31-07-2015 11:57:43  Orly
5 393 19-07-2015 11:20:49  Imobile
11 363 15-07-2015 22:09:31  igorzh

Вы здесь » Форум клана ЧПУшников » Лазерные станки